createdAt,value
2023-02-14T00:00:20.979Z,6.55
2023-02-14T00:01:20.985Z,6.54
2023-02-14T00:02:20.969Z,6.50
2023-02-14T00:03:20.973Z,6.48
2023-02-14T00:04:20.980Z,6.48
2023-02-14T00:05:21.005Z,6.48
2023-02-14T00:06:20.928Z,6.45
2023-02-14T00:07:20.975Z,6.46
2023-02-14T00:08:20.943Z,6.43
2023-02-14T00:09:20.921Z,6.43
2023-02-14T00:10:20.905Z,6.42
2023-02-14T00:11:20.857Z,6.39
2023-02-14T00:12:20.815Z,6.38
2023-02-14T00:13:20.874Z,6.35
2023-02-14T00:14:20.826Z,6.35
2023-02-14T00:15:20.778Z,6.32
2023-02-14T00:16:20.774Z,6.32
2023-02-14T00:17:20.792Z,6.33
2023-02-14T00:18:20.756Z,6.30
2023-02-14T00:19:20.757Z,6.28
2023-02-14T00:20:20.706Z,6.28
2023-02-14T00:21:20.732Z,6.24
2023-02-14T00:22:20.712Z,6.25
2023-02-14T00:23:20.702Z,6.21
2023-02-14T00:24:20.674Z,6.20
2023-02-14T00:25:20.652Z,6.21
2023-02-14T00:26:20.667Z,6.17
2023-02-14T00:27:20.661Z,6.16
2023-02-14T00:28:20.604Z,6.16
2023-02-14T00:29:20.754Z,6.16
2023-02-14T00:30:20.634Z,6.19
2023-02-14T00:31:20.830Z,6.19
2023-02-14T00:32:20.588Z,6.16
2023-02-14T00:33:20.652Z,6.14
2023-02-14T00:34:20.534Z,6.17
2023-02-14T00:35:20.611Z,6.17
2023-02-14T00:36:20.543Z,6.19
2023-02-14T00:37:20.557Z,6.17
2023-02-14T00:38:20.472Z,6.17
2023-02-14T00:39:20.525Z,6.14
2023-02-14T00:40:20.493Z,6.13
2023-02-14T00:41:20.458Z,6.16
2023-02-14T00:42:20.455Z,6.13
2023-02-14T00:43:20.421Z,6.10
2023-02-14T00:44:20.404Z,6.06
2023-02-14T00:45:20.424Z,6.03
2023-02-14T00:46:20.479Z,6.05
2023-02-14T00:47:20.413Z,6.03
2023-02-14T00:48:20.350Z,6.05
2023-02-14T00:49:20.389Z,6.06
2023-02-14T00:50:20.367Z,6.08
2023-02-14T00:51:20.369Z,6.10
2023-02-14T00:52:20.327Z,6.10
2023-02-14T00:53:20.357Z,6.10
2023-02-14T00:54:20.334Z,6.08
2023-02-14T00:55:20.300Z,6.08
2023-02-14T00:56:20.269Z,6.05
2023-02-14T00:57:20.239Z,6.05
2023-02-14T00:58:20.244Z,6.06
2023-02-14T00:59:20.252Z,6.05
2023-02-14T01:00:20.228Z,6.05
2023-02-14T01:01:20.273Z,6.05
2023-02-14T01:02:20.234Z,6.05
2023-02-14T01:03:20.243Z,6.10
2023-02-14T01:04:20.183Z,6.06
2023-02-14T01:05:20.182Z,6.06
2023-02-14T01:06:20.127Z,6.06
2023-02-14T01:07:20.115Z,6.06
2023-02-14T01:08:20.128Z,6.10
2023-02-14T01:09:20.103Z,6.08
2023-02-14T01:10:20.090Z,6.06
2023-02-14T01:11:20.141Z,6.05
2023-02-14T01:12:20.083Z,6.03
2023-02-14T01:13:20.045Z,6.05
2023-02-14T01:14:20.042Z,6.02
2023-02-14T01:15:20.025Z,6.01
2023-02-14T01:16:20.073Z,6.02
2023-02-14T01:17:20.069Z,6.02
2023-02-14T01:18:19.968Z,6.02
2023-02-14T01:19:19.994Z,6.01
2023-02-14T01:20:19.934Z,5.98
2023-02-14T01:21:19.955Z,5.99
2023-02-14T01:22:19.915Z,5.98
2023-02-14T01:23:19.923Z,5.98
2023-02-14T01:24:19.883Z,6.01
2023-02-14T01:25:19.949Z,6.01
2023-02-14T01:26:19.906Z,6.01
2023-02-14T01:27:19.882Z,5.99
2023-02-14T01:28:19.833Z,5.99
2023-02-14T01:29:19.842Z,5.99
2023-02-14T01:30:19.931Z,5.98
2023-02-14T01:31:20.050Z,5.98
2023-02-14T01:32:20.015Z,5.98
2023-02-14T01:33:19.799Z,5.99
2023-02-14T01:34:19.781Z,5.98
2023-02-14T01:35:19.777Z,5.99
2023-02-14T01:36:19.766Z,5.99
2023-02-14T01:37:19.796Z,5.99
2023-02-14T01:38:19.702Z,5.98
2023-02-14T01:39:19.738Z,5.95
2023-02-14T01:40:19.726Z,5.92
2023-02-14T01:41:19.712Z,5.93
2023-02-14T01:42:19.688Z,5.93
2023-02-14T01:43:19.678Z,5.92
2023-02-14T01:44:19.678Z,5.95
2023-02-14T01:45:19.694Z,5.93
2023-02-14T01:46:19.615Z,5.93
2023-02-14T01:47:19.660Z,5.92
2023-02-14T01:48:19.620Z,5.90
2023-02-14T01:49:19.585Z,5.87
2023-02-14T01:50:19.605Z,5.84
2023-02-14T01:51:19.563Z,5.81
2023-02-14T01:52:19.547Z,5.80
2023-02-14T01:53:19.599Z,5.78
2023-02-14T01:54:19.510Z,5.74
2023-02-14T01:55:19.524Z,5.75
2023-02-14T01:56:19.489Z,5.74
2023-02-14T01:57:19.545Z,5.74
2023-02-14T01:58:19.531Z,5.73
2023-02-14T01:59:19.491Z,5.70
2023-02-14T02:00:19.499Z,5.69
2023-02-14T02:01:19.644Z,5.70
2023-02-14T02:02:19.470Z,5.66
2023-02-14T02:03:19.424Z,5.65
2023-02-14T02:04:19.381Z,5.63
2023-02-14T02:05:19.411Z,5.65
2023-02-14T02:06:19.362Z,5.63
2023-02-14T02:07:19.393Z,5.63
2023-02-14T02:08:19.375Z,5.60
2023-02-14T02:09:19.374Z,5.60
2023-02-14T02:10:19.351Z,5.59
2023-02-14T02:11:19.312Z,5.58
2023-02-14T02:12:19.308Z,5.59
2023-02-14T02:13:19.325Z,5.56
2023-02-14T02:14:19.273Z,5.55
2023-02-14T02:15:19.314Z,5.51
2023-02-14T02:16:19.301Z,5.51
2023-02-14T02:17:19.260Z,5.48
2023-02-14T02:18:19.267Z,5.48
2023-02-14T02:19:19.213Z,5.45
2023-02-14T02:20:19.230Z,5.42
2023-02-14T02:21:19.224Z,5.44
2023-02-14T02:22:19.182Z,5.42
2023-02-14T02:23:19.308Z,5.40
2023-02-14T02:24:19.176Z,5.40
2023-02-14T02:25:19.136Z,5.41
2023-02-14T02:26:19.167Z,5.41
2023-02-14T02:27:19.131Z,5.40
2023-02-14T02:28:19.125Z,5.40
2023-02-14T02:29:19.101Z,5.38
2023-02-14T02:30:19.164Z,5.38
2023-02-14T02:31:19.164Z,5.38
2023-02-14T02:32:19.043Z,5.40
2023-02-14T02:33:26.641Z,5.38
2023-02-14T02:34:19.047Z,5.40
2023-02-14T02:35:19.032Z,5.37
2023-02-14T02:36:19.021Z,5.37
2023-02-14T02:37:18.974Z,5.35
2023-02-14T02:38:18.973Z,5.35
2023-02-14T02:39:18.943Z,5.35
2023-02-14T02:40:18.952Z,5.33
2023-02-14T02:41:18.950Z,5.32
2023-02-14T02:42:18.953Z,5.30
2023-02-14T02:43:18.892Z,5.27
2023-02-14T02:44:18.893Z,5.27
2023-02-14T02:45:18.883Z,5.27
2023-02-14T02:46:18.908Z,5.26
2023-02-14T02:47:18.840Z,5.23
2023-02-14T02:48:18.832Z,5.23
2023-02-14T02:49:18.849Z,5.20
2023-02-14T02:50:18.847Z,5.19
2023-02-14T02:51:18.791Z,5.15
2023-02-14T02:52:18.812Z,5.15
2023-02-14T02:53:18.764Z,5.14
2023-02-14T02:54:18.760Z,5.14
2023-02-14T02:55:18.777Z,5.12
2023-02-14T02:56:18.761Z,5.11
2023-02-14T02:57:18.717Z,5.08
2023-02-14T02:58:18.709Z,5.08
2023-02-14T02:59:18.706Z,5.06
2023-02-14T03:00:18.707Z,5.04
2023-02-14T03:01:18.710Z,5.05
2023-02-14T03:02:18.714Z,5.02
2023-02-14T03:03:18.644Z,5.02
2023-02-14T03:04:18.657Z,4.99
2023-02-14T03:05:18.620Z,4.94
2023-02-14T03:06:18.643Z,4.94
2023-02-14T03:07:18.580Z,4.91
2023-02-14T03:08:18.613Z,4.88
2023-02-14T03:09:18.604Z,4.87
2023-02-14T03:10:18.585Z,4.84
2023-02-14T03:11:18.536Z,4.80
2023-02-14T03:12:18.574Z,4.80
2023-02-14T03:13:18.507Z,4.75
2023-02-14T03:14:18.536Z,4.74
2023-02-14T03:15:18.518Z,4.71
2023-02-14T03:16:18.487Z,4.71
2023-02-14T03:17:18.486Z,4.71
2023-02-14T03:18:18.482Z,4.69
2023-02-14T03:19:18.458Z,4.67
2023-02-14T03:20:18.429Z,4.64
2023-02-14T03:21:18.422Z,4.64
2023-02-14T03:22:18.405Z,4.64
2023-02-14T03:23:18.402Z,4.62
2023-02-14T03:24:18.403Z,4.61
2023-02-14T03:25:19.351Z,4.57
2023-02-14T03:26:18.408Z,4.59
2023-02-14T03:27:18.328Z,4.59
2023-02-14T03:28:18.369Z,4.56
2023-02-14T03:29:18.306Z,4.57
2023-02-14T03:30:18.349Z,4.56
2023-02-14T03:31:18.371Z,4.56
2023-02-14T03:32:18.500Z,4.53
2023-02-14T03:33:18.282Z,4.53
2023-02-14T03:34:18.256Z,4.56
2023-02-14T03:35:18.960Z,4.53
2023-02-14T03:36:18.242Z,4.51
2023-02-14T03:37:18.202Z,4.50
2023-02-14T03:38:18.224Z,4.51
2023-02-14T03:39:18.199Z,4.49
2023-02-14T03:40:18.208Z,4.51
2023-02-14T03:41:18.163Z,4.51
2023-02-14T03:42:18.174Z,4.51
2023-02-14T03:43:18.125Z,4.50
2023-02-14T03:44:18.155Z,4.47
2023-02-14T03:45:18.164Z,4.47
2023-02-14T03:46:18.188Z,4.47
2023-02-14T03:47:18.080Z,4.47
2023-02-14T03:48:18.071Z,4.47
2023-02-14T03:49:18.053Z,4.46
2023-02-14T03:50:18.076Z,4.47
2023-02-14T03:51:18.056Z,4.50
2023-02-14T03:52:18.072Z,4.50
2023-02-14T03:53:18.030Z,4.51
2023-02-14T03:54:18.008Z,4.53
2023-02-14T03:55:17.995Z,4.53
2023-02-14T03:56:18.018Z,4.53
2023-02-14T03:57:17.948Z,4.51
2023-02-14T03:58:17.974Z,4.53
2023-02-14T03:59:17.920Z,4.51
2023-02-14T04:00:17.927Z,4.54
2023-02-14T04:01:17.994Z,4.56
2023-02-14T04:02:17.929Z,4.57
2023-02-14T04:03:18.866Z,4.56
2023-02-14T04:04:17.903Z,4.57
2023-02-14T04:05:17.893Z,4.57
2023-02-14T04:06:17.865Z,4.57
2023-02-14T04:07:17.826Z,4.56
2023-02-14T04:08:17.852Z,4.54
2023-02-14T04:09:17.813Z,4.51
2023-02-14T04:10:17.796Z,4.53
2023-02-14T04:11:17.784Z,4.47
2023-02-14T04:12:26.537Z,4.47
2023-02-14T04:13:18.743Z,4.46
2023-02-14T04:14:17.770Z,4.46
2023-02-14T04:15:17.780Z,4.46
2023-02-14T04:16:17.793Z,4.44
2023-02-14T04:17:17.725Z,4.43
2023-02-14T04:18:17.729Z,4.43
2023-02-14T04:19:17.673Z,4.38
2023-02-14T04:20:17.675Z,4.38
2023-02-14T04:21:17.699Z,4.36
2023-02-14T04:22:17.668Z,4.36
2023-02-14T04:23:17.670Z,4.38
2023-02-14T04:24:17.613Z,4.38
2023-02-14T04:25:17.623Z,4.42
2023-02-14T04:26:17.614Z,4.39
2023-02-14T04:27:17.586Z,4.39
2023-02-14T04:28:17.583Z,4.39
2023-02-14T04:29:17.584Z,4.42
2023-02-14T04:30:17.621Z,4.39
2023-02-14T04:31:17.623Z,4.39
2023-02-14T04:32:17.656Z,4.42
2023-02-14T04:33:17.494Z,4.39
2023-02-14T04:34:17.492Z,4.42
2023-02-14T04:35:17.487Z,4.39
2023-02-14T04:36:17.479Z,4.36
2023-02-14T04:37:17.468Z,4.39
2023-02-14T04:38:17.445Z,4.36
2023-02-14T04:39:17.444Z,4.36
2023-02-14T04:40:17.495Z,4.39
2023-02-14T04:41:17.409Z,4.38
2023-02-14T04:42:17.401Z,4.38
2023-02-14T04:43:17.366Z,4.39
2023-02-14T04:44:17.443Z,4.36
2023-02-14T04:45:17.337Z,4.39
2023-02-14T04:46:17.465Z,4.39
2023-02-14T04:47:17.322Z,4.39
2023-02-14T04:48:17.349Z,4.39
2023-02-14T04:49:17.300Z,4.36
2023-02-14T04:50:17.284Z,4.38
2023-02-14T04:51:17.290Z,4.36
2023-02-14T04:52:17.302Z,4.35
2023-02-14T04:53:17.287Z,4.34
2023-02-14T04:54:17.277Z,4.34
2023-02-14T04:55:17.264Z,4.35
2023-02-14T04:56:17.267Z,4.35
2023-02-14T04:57:17.249Z,4.34
2023-02-14T04:58:17.231Z,4.34
2023-02-14T04:59:17.179Z,4.35
2023-02-14T05:00:17.176Z,4.38
2023-02-14T05:01:17.211Z,4.38
2023-02-14T05:02:18.274Z,4.36
2023-02-14T05:03:17.102Z,4.36
2023-02-14T05:04:17.139Z,4.38
2023-02-14T05:05:17.107Z,4.38
2023-02-14T05:06:17.088Z,4.43
2023-02-14T05:07:17.071Z,4.47
2023-02-14T05:08:17.070Z,4.47
2023-02-14T05:09:17.055Z,4.47
2023-02-14T05:10:17.030Z,4.46
2023-02-14T05:11:17.035Z,4.44
2023-02-14T05:12:17.048Z,4.47
2023-02-14T05:13:17.000Z,4.46
2023-02-14T05:14:16.981Z,4.44
2023-02-14T05:15:16.958Z,4.44
2023-02-14T05:16:17.034Z,4.43
2023-02-14T05:17:16.965Z,4.43
2023-02-14T05:18:16.943Z,4.43
2023-02-14T05:19:16.908Z,4.39
2023-02-14T05:20:16.943Z,4.42
2023-02-14T05:21:16.931Z,4.42
2023-02-14T05:22:18.549Z,4.39
2023-02-14T05:23:16.864Z,4.39
2023-02-14T05:24:16.914Z,4.39
2023-02-14T05:25:16.838Z,4.38
2023-02-14T05:26:16.829Z,4.38
2023-02-14T05:27:16.861Z,4.36
2023-02-14T05:28:16.837Z,4.39
2023-02-14T05:29:16.811Z,4.38
2023-02-14T05:30:16.913Z,4.42
2023-02-14T05:31:16.875Z,4.42
2023-02-14T05:32:16.857Z,4.42
2023-02-14T05:33:16.756Z,4.42
2023-02-14T05:34:16.736Z,4.42
2023-02-14T05:35:16.702Z,4.42
2023-02-14T05:36:16.711Z,4.38
2023-02-14T05:37:16.738Z,4.39
2023-02-14T05:38:16.717Z,4.36
2023-02-14T05:39:16.659Z,4.36
2023-02-14T05:40:16.679Z,4.34
2023-02-14T05:41:16.632Z,4.32
2023-02-14T05:42:16.655Z,4.32
2023-02-14T05:43:16.628Z,4.31
2023-02-14T05:44:16.659Z,4.32
2023-02-14T05:45:16.580Z,4.32
2023-02-14T05:46:16.586Z,4.32
2023-02-14T05:47:16.548Z,4.31
2023-02-14T05:48:16.576Z,4.31
2023-02-14T05:49:16.534Z,4.32
2023-02-14T05:50:16.558Z,4.32
2023-02-14T05:51:16.518Z,4.31
2023-02-14T05:52:16.536Z,4.31
2023-02-14T05:53:16.531Z,4.32
2023-02-14T05:54:16.481Z,4.32
2023-02-14T05:55:16.485Z,4.32
2023-02-14T05:56:16.455Z,4.34
2023-02-14T05:57:16.428Z,4.36
2023-02-14T05:58:16.456Z,4.38
2023-02-14T05:59:16.460Z,4.35
2023-02-14T06:00:16.431Z,4.34
2023-02-14T06:01:16.403Z,4.34
2023-02-14T06:02:16.455Z,4.32
2023-02-14T06:03:16.379Z,4.32
2023-02-14T06:04:16.376Z,4.34
2023-02-14T06:05:16.325Z,4.34
2023-02-14T06:06:16.352Z,4.34
2023-02-14T06:07:16.327Z,4.35
2023-02-14T06:08:16.328Z,4.38
2023-02-14T06:09:16.343Z,4.38
2023-02-14T06:10:16.269Z,4.38
2023-02-14T06:11:16.259Z,4.43
2023-02-14T06:12:16.317Z,4.44
2023-02-14T06:13:16.228Z,4.42
2023-02-14T06:14:16.331Z,4.43
2023-02-14T06:15:17.000Z,4.39
2023-02-14T06:16:16.300Z,4.38
2023-02-14T06:17:16.209Z,4.39
2023-02-14T06:18:16.171Z,4.36
2023-02-14T06:19:16.157Z,4.38
2023-02-14T06:20:16.177Z,4.38
2023-02-14T06:21:16.176Z,4.38
2023-02-14T06:22:16.164Z,4.42
2023-02-14T06:23:16.110Z,4.39
2023-02-14T06:24:16.136Z,4.39
2023-02-14T06:25:16.097Z,4.38
2023-02-14T06:26:16.161Z,4.39
2023-02-14T06:27:16.061Z,4.42
2023-02-14T06:28:16.094Z,4.44
2023-02-14T06:29:16.055Z,4.44
2023-02-14T06:30:16.137Z,4.44
2023-02-14T06:31:16.118Z,4.39
2023-02-14T06:32:16.113Z,4.39
2023-02-14T06:33:15.979Z,4.39
2023-02-14T06:34:16.320Z,4.42
2023-02-14T06:35:15.980Z,4.39
2023-02-14T06:36:15.984Z,4.43
2023-02-14T06:37:15.923Z,4.42
2023-02-14T06:38:15.945Z,4.42
2023-02-14T06:39:15.928Z,4.43
2023-02-14T06:40:15.924Z,4.39
2023-02-14T06:41:15.912Z,4.39
2023-02-14T06:42:15.881Z,4.38
2023-02-14T06:43:15.899Z,4.38
2023-02-14T06:44:15.842Z,4.39
2023-02-14T06:45:15.836Z,4.38
2023-02-14T06:46:15.864Z,4.35
2023-02-14T06:47:15.806Z,4.35
2023-02-14T06:48:15.776Z,4.36
2023-02-14T06:49:15.787Z,4.39
2023-02-14T06:50:15.784Z,4.38
2023-02-14T06:51:15.768Z,4.42
2023-02-14T06:52:15.759Z,4.43
2023-02-14T06:53:15.787Z,4.43
2023-02-14T06:54:15.713Z,4.43
2023-02-14T06:55:15.730Z,4.44
2023-02-14T06:56:15.738Z,4.43
2023-02-14T06:57:15.676Z,4.43
2023-02-14T06:58:15.651Z,4.42
2023-02-14T06:59:15.702Z,4.42
2023-02-14T07:00:15.630Z,4.44
2023-02-14T07:01:15.656Z,4.46
2023-02-14T07:02:15.733Z,4.44
2023-02-14T07:03:15.611Z,4.46
2023-02-14T07:04:15.597Z,4.46
2023-02-14T07:05:15.627Z,4.46
2023-02-14T07:06:15.560Z,4.44
2023-02-14T07:07:15.549Z,4.46
2023-02-14T07:08:15.557Z,4.44
2023-02-14T07:09:15.576Z,4.43
2023-02-14T07:10:15.510Z,4.43
2023-02-14T07:11:15.509Z,4.43
2023-02-14T07:12:15.470Z,4.43
2023-02-14T07:13:15.508Z,4.42
2023-02-14T07:14:15.477Z,4.42
2023-02-14T07:15:15.545Z,4.38
2023-02-14T07:16:15.578Z,4.36
2023-02-14T07:17:15.452Z,4.38
2023-02-14T07:18:15.436Z,4.38
2023-02-14T07:19:15.389Z,4.38
2023-02-14T07:20:15.364Z,4.39
2023-02-14T07:21:15.388Z,4.38
2023-02-14T07:22:15.375Z,4.39
2023-02-14T07:23:15.359Z,4.42
2023-02-14T07:24:15.329Z,4.42
2023-02-14T07:25:15.386Z,4.43
2023-02-14T07:26:15.305Z,4.44
2023-02-14T07:27:15.305Z,4.44
2023-02-14T07:28:15.275Z,4.43
2023-02-14T07:29:15.288Z,4.43
2023-02-14T07:30:15.290Z,4.43
2023-02-14T07:31:15.413Z,4.42
2023-02-14T07:32:15.351Z,4.43
2023-02-14T07:33:15.251Z,4.44
2023-02-14T07:34:15.195Z,4.44
2023-02-14T07:35:15.460Z,4.47
2023-02-14T07:36:15.202Z,4.47
2023-02-14T07:37:15.189Z,4.47
2023-02-14T07:38:15.141Z,4.49
2023-02-14T07:39:15.147Z,4.49
2023-02-14T07:40:15.516Z,4.51
2023-02-14T07:41:15.122Z,4.53
2023-02-14T07:42:15.094Z,4.56
2023-02-14T07:43:15.092Z,4.56
2023-02-14T07:44:15.094Z,4.56
2023-02-14T07:45:21.584Z,4.59
2023-02-14T07:46:16.082Z,4.61
2023-02-14T07:47:15.039Z,4.62
2023-02-14T07:48:15.001Z,4.65
2023-02-14T07:49:15.204Z,4.68
2023-02-14T07:50:15.015Z,4.67
2023-02-14T07:51:15.031Z,4.69
2023-02-14T07:52:15.023Z,4.72
2023-02-14T07:53:15.100Z,4.74
2023-02-14T07:54:14.970Z,4.77
2023-02-14T07:55:14.928Z,4.80
2023-02-14T07:56:14.919Z,4.83
2023-02-14T07:57:14.930Z,4.84
2023-02-14T07:58:14.884Z,4.90
2023-02-14T07:59:14.903Z,4.91
2023-02-14T08:00:14.860Z,4.91
2023-02-14T08:01:14.934Z,4.94
2023-02-14T08:02:14.834Z,4.97
2023-02-14T08:03:14.835Z,4.97
2023-02-14T08:04:14.892Z,5.02
2023-02-14T08:05:15.014Z,5.05
2023-02-14T08:06:14.794Z,5.08
2023-02-14T08:07:14.778Z,5.12
2023-02-14T08:08:14.783Z,5.15
2023-02-14T08:09:14.756Z,5.19
2023-02-14T08:10:14.754Z,5.24
2023-02-14T08:11:14.800Z,5.29
2023-02-14T08:12:14.708Z,5.32
2023-02-14T08:13:14.735Z,5.33
2023-02-14T08:14:14.714Z,5.37
2023-02-14T08:15:14.708Z,5.41
2023-02-14T08:16:14.740Z,5.44
2023-02-14T08:17:14.673Z,5.47
2023-02-14T08:18:14.640Z,5.49
2023-02-14T08:19:14.620Z,5.52
2023-02-14T08:20:14.596Z,5.58
2023-02-14T08:21:14.626Z,5.59
2023-02-14T08:22:14.594Z,5.63
2023-02-14T08:23:14.626Z,5.66
2023-02-14T08:24:14.539Z,5.69
2023-02-14T08:25:14.576Z,5.74
2023-02-14T08:26:14.539Z,5.78
2023-02-14T08:27:14.546Z,5.80
2023-02-14T08:28:14.506Z,5.83
2023-02-14T08:29:16.629Z,5.87
2023-02-14T08:30:14.568Z,5.88
2023-02-14T08:31:15.930Z,5.93
2023-02-14T08:32:14.512Z,5.93
2023-02-14T08:33:14.501Z,5.98
2023-02-14T08:34:14.463Z,5.99
2023-02-14T08:35:14.418Z,6.02
2023-02-14T08:36:22.286Z,6.03
2023-02-14T08:37:15.162Z,6.06
2023-02-14T08:38:14.362Z,6.14
2023-02-14T08:39:17.040Z,6.19
2023-02-14T08:40:14.333Z,6.24
2023-02-14T08:41:14.401Z,6.28
2023-02-14T08:42:14.310Z,6.32
2023-02-14T08:43:14.313Z,6.35
2023-02-14T08:44:14.319Z,6.36
2023-02-14T08:45:14.313Z,6.35
2023-02-14T08:46:14.376Z,6.36
2023-02-14T08:47:14.310Z,6.38
2023-02-14T08:48:14.273Z,6.39
2023-02-14T08:49:14.257Z,6.40
2023-02-14T08:50:14.213Z,6.43
2023-02-14T08:51:14.269Z,6.45
2023-02-14T08:52:14.182Z,6.46
2023-02-14T08:53:14.267Z,6.48
2023-02-14T08:54:14.187Z,6.51
2023-02-14T08:55:14.187Z,6.51
2023-02-14T08:56:14.150Z,6.54
2023-02-14T08:57:14.185Z,6.55
2023-02-14T08:58:14.139Z,6.57
2023-02-14T08:59:14.132Z,6.60
2023-02-14T09:00:14.151Z,6.61
2023-02-14T09:01:14.205Z,6.64
2023-02-14T09:02:14.279Z,6.68
2023-02-14T09:03:14.084Z,6.69
2023-02-14T09:04:14.147Z,6.71
2023-02-14T09:05:14.075Z,6.75
2023-02-14T09:06:14.016Z,6.76
2023-02-14T09:07:14.041Z,6.78
2023-02-14T09:08:14.013Z,6.79
2023-02-14T09:09:13.999Z,6.81
2023-02-14T09:10:14.027Z,6.81
2023-02-14T09:11:13.966Z,6.81
2023-02-14T09:12:14.008Z,6.86
2023-02-14T09:13:13.952Z,6.87
2023-02-14T09:14:13.958Z,6.89
2023-02-14T09:15:13.960Z,6.89
2023-02-14T09:16:13.977Z,6.91
2023-02-14T09:17:13.871Z,6.91
2023-02-14T09:18:13.896Z,6.91
2023-02-14T09:19:13.922Z,6.93
2023-02-14T09:20:13.883Z,6.93
2023-02-14T09:21:13.876Z,6.97
2023-02-14T09:22:13.893Z,6.99
2023-02-14T09:23:13.801Z,7.00
2023-02-14T09:24:13.810Z,7.04
2023-02-14T09:25:13.810Z,7.07
2023-02-14T09:26:13.778Z,7.08
2023-02-14T09:27:13.838Z,7.12
2023-02-14T09:28:13.748Z,7.14
2023-02-14T09:29:13.772Z,7.15
2023-02-14T09:30:13.821Z,7.18
2023-02-14T09:31:13.859Z,7.18
2023-02-14T09:32:13.802Z,7.21
2023-02-14T09:33:13.683Z,7.19
2023-02-14T09:34:13.679Z,7.24
2023-02-14T09:35:13.707Z,7.24
2023-02-14T09:36:13.648Z,7.23
2023-02-14T09:37:13.722Z,7.29
2023-02-14T09:38:13.606Z,7.30
2023-02-14T09:39:13.636Z,7.30
2023-02-14T09:40:13.596Z,7.32
2023-02-14T09:41:13.597Z,7.36
2023-02-14T09:42:13.595Z,7.37
2023-02-14T09:43:13.576Z,7.36
2023-02-14T09:44:13.584Z,7.39
2023-02-14T09:45:13.553Z,7.42
2023-02-14T09:46:13.541Z,7.44
2023-02-14T09:47:13.632Z,7.45
2023-02-14T09:48:13.538Z,7.47
2023-02-14T09:49:13.608Z,7.48
2023-02-14T09:50:13.486Z,7.52
2023-02-14T09:51:13.485Z,7.52
2023-02-14T09:52:15.146Z,7.55
2023-02-14T09:53:13.463Z,7.57
2023-02-14T09:54:13.426Z,7.57
2023-02-14T09:55:13.443Z,7.58
2023-02-14T09:56:14.154Z,7.62
2023-02-14T09:57:13.413Z,7.66
2023-02-14T09:58:13.353Z,7.69
2023-02-14T09:59:13.345Z,7.71
2023-02-14T10:00:13.355Z,7.73
2023-02-14T10:01:13.371Z,7.76
2023-02-14T10:02:13.410Z,7.76
2023-02-14T10:03:13.317Z,7.77
2023-02-14T10:04:13.287Z,7.79
2023-02-14T10:05:13.308Z,7.82
2023-02-14T10:06:13.251Z,7.84
2023-02-14T10:07:13.263Z,7.85
2023-02-14T10:08:13.234Z,7.88
2023-02-14T10:09:13.295Z,7.89
2023-02-14T10:10:13.241Z,7.92
2023-02-14T10:11:13.197Z,7.92
2023-02-14T10:12:13.241Z,7.95
2023-02-14T10:13:13.172Z,7.99
2023-02-14T10:14:13.191Z,8.00
2023-02-14T10:15:13.163Z,8.02
2023-02-14T10:16:13.211Z,8.02
2023-02-14T10:17:13.150Z,8.06
2023-02-14T10:18:13.150Z,8.07
2023-02-14T10:19:13.102Z,8.09
2023-02-14T10:20:13.096Z,8.12
2023-02-14T10:21:13.114Z,8.14
2023-02-14T10:22:13.095Z,8.18
2023-02-14T10:23:13.115Z,8.18
2023-02-14T10:24:13.119Z,8.21
2023-02-14T10:25:13.032Z,8.22
2023-02-14T10:26:13.018Z,8.25
2023-02-14T10:27:14.700Z,8.27
2023-02-14T10:28:14.678Z,8.28
2023-02-14T10:29:12.980Z,8.31
2023-02-14T10:30:13.010Z,8.32
2023-02-14T10:31:12.982Z,8.36
2023-02-14T10:32:12.982Z,8.37
2023-02-14T10:33:12.937Z,8.42
2023-02-14T10:34:12.905Z,8.43
2023-02-14T10:35:12.916Z,8.46
2023-02-14T10:36:12.877Z,8.50
2023-02-14T10:37:12.942Z,8.55
2023-02-14T10:38:12.889Z,8.58
2023-02-14T10:39:12.873Z,8.60
2023-02-14T10:40:12.830Z,8.63
2023-02-14T10:41:12.837Z,8.64
2023-02-14T10:42:12.830Z,8.64
2023-02-14T10:43:12.820Z,8.65
2023-02-14T10:44:12.815Z,8.64
2023-02-14T10:45:12.762Z,8.65
2023-02-14T10:46:12.804Z,8.67
2023-02-14T10:47:12.778Z,8.73
2023-02-14T10:48:12.737Z,8.75
2023-02-14T10:49:12.741Z,8.76
2023-02-14T10:50:12.745Z,8.80
2023-02-14T10:51:12.745Z,8.80
2023-02-14T10:52:12.687Z,8.85
2023-02-14T10:53:12.676Z,8.86
2023-02-14T10:54:12.646Z,8.88
2023-02-14T10:55:20.194Z,8.88
2023-02-14T10:56:13.618Z,8.91
2023-02-14T10:57:12.657Z,8.93
2023-02-14T10:58:12.630Z,8.96
2023-02-14T10:59:12.610Z,8.97
2023-02-14T11:00:13.613Z,9.00
2023-02-14T11:01:12.622Z,9.00
2023-02-14T11:02:12.576Z,9.04
2023-02-14T11:03:12.654Z,9.03
2023-02-14T11:04:12.561Z,9.10
2023-02-14T11:05:12.500Z,9.13
2023-02-14T11:06:12.497Z,9.15
2023-02-14T11:07:12.542Z,9.16
2023-02-14T11:08:12.477Z,9.16
2023-02-14T11:09:12.467Z,9.17
2023-02-14T11:10:13.215Z,9.17
2023-02-14T11:11:12.449Z,9.20
2023-02-14T11:12:12.484Z,9.22
2023-02-14T11:13:12.396Z,9.23
2023-02-14T11:14:12.424Z,9.24
2023-02-14T11:15:12.408Z,9.23
2023-02-14T11:16:12.372Z,9.26
2023-02-14T11:17:12.432Z,9.27
2023-02-14T11:18:12.392Z,9.30
2023-02-14T11:19:12.355Z,9.34
2023-02-14T11:20:12.362Z,9.35
2023-02-14T11:21:12.362Z,9.37
2023-02-14T11:22:12.355Z,9.37
2023-02-14T11:23:12.314Z,9.40
2023-02-14T11:24:12.264Z,9.41
2023-02-14T11:25:12.254Z,9.45
2023-02-14T11:26:12.270Z,9.45
2023-02-14T11:27:12.243Z,9.48
2023-02-14T11:28:12.328Z,9.49
2023-02-14T11:29:12.211Z,9.48
2023-02-14T11:30:12.258Z,9.49
2023-02-14T11:31:12.342Z,9.50
2023-02-14T11:32:12.169Z,9.50
2023-02-14T11:33:12.185Z,9.53
2023-02-14T11:34:12.149Z,9.53
2023-02-14T11:35:12.104Z,9.55
2023-02-14T11:36:12.134Z,9.53
2023-02-14T11:37:12.081Z,9.52
2023-02-14T11:38:12.101Z,9.53
2023-02-14T11:39:12.191Z,9.56
2023-02-14T11:40:12.085Z,9.56
2023-02-14T11:41:12.106Z,9.55
2023-02-14T11:42:12.034Z,9.56
2023-02-14T11:43:14.181Z,9.56
2023-02-14T11:44:12.059Z,9.55
2023-02-14T11:45:11.969Z,9.55
2023-02-14T11:46:12.081Z,9.55
2023-02-14T11:47:11.975Z,9.59
2023-02-14T11:48:11.955Z,9.60
2023-02-14T11:49:11.946Z,9.62
2023-02-14T11:50:20.533Z,9.63
2023-02-14T11:51:19.897Z,9.65
2023-02-14T11:52:11.929Z,9.70
2023-02-14T11:53:12.026Z,9.73
2023-02-14T11:54:11.901Z,9.77
2023-02-14T11:55:11.895Z,9.80
2023-02-14T11:56:11.872Z,9.81
2023-02-14T11:57:11.850Z,9.80
2023-02-14T11:58:11.887Z,9.81
2023-02-14T11:59:11.843Z,9.81
2023-02-14T12:00:11.796Z,9.81
2023-02-14T12:01:11.772Z,9.80
2023-02-14T12:02:11.792Z,9.80
2023-02-14T12:03:11.778Z,9.78
2023-02-14T12:04:13.001Z,9.78
2023-02-14T12:05:11.770Z,9.77
2023-02-14T12:06:11.747Z,9.78
2023-02-14T12:07:11.797Z,9.81
2023-02-14T12:08:11.799Z,9.86
2023-02-14T12:09:11.732Z,9.86
2023-02-14T12:10:11.690Z,9.89
2023-02-14T12:11:11.662Z,9.92
2023-02-14T12:12:11.672Z,9.93
2023-02-14T12:13:11.623Z,9.93
2023-02-14T12:14:11.704Z,9.93
2023-02-14T12:15:11.603Z,9.95
2023-02-14T12:16:11.643Z,9.99
2023-02-14T12:17:11.609Z,9.99
2023-02-14T12:18:11.606Z,9.98
2023-02-14T12:19:11.579Z,9.98
2023-02-14T12:20:11.582Z,9.99
2023-02-14T12:21:11.568Z,9.99
2023-02-14T12:22:11.548Z,9.99
2023-02-14T12:23:11.491Z,9.98
2023-02-14T12:24:11.513Z,9.98
2023-02-14T12:25:11.508Z,9.98
2023-02-14T12:26:11.499Z,9.95
2023-02-14T12:27:12.443Z,9.96
2023-02-14T12:28:11.498Z,9.93
2023-02-14T12:29:11.470Z,9.93
2023-02-14T12:30:11.486Z,9.92
2023-02-14T12:31:11.553Z,9.93
2023-02-14T12:32:11.588Z,9.95
2023-02-14T12:33:11.407Z,9.98
2023-02-14T12:34:11.394Z,10.02
2023-02-14T12:35:11.369Z,10.02
2023-02-14T12:36:11.340Z,10.04
2023-02-14T12:37:12.153Z,10.06
2023-02-14T12:38:11.314Z,10.06
2023-02-14T12:39:11.538Z,10.06
2023-02-14T12:40:11.334Z,10.06
2023-02-14T12:41:11.349Z,10.06
2023-02-14T12:42:11.284Z,10.07
2023-02-14T12:43:11.312Z,10.04
2023-02-14T12:44:11.250Z,10.06
2023-02-14T12:45:11.284Z,10.06
2023-02-14T12:46:11.377Z,10.07
2023-02-14T12:47:11.210Z,10.07
2023-02-14T12:48:12.705Z,10.07
2023-02-14T12:49:11.200Z,10.11
2023-02-14T12:50:11.202Z,10.14
2023-02-14T12:51:11.184Z,10.17
2023-02-14T12:52:11.236Z,10.14
2023-02-14T12:53:11.140Z,10.16
2023-02-14T12:54:11.113Z,10.16
2023-02-14T12:55:11.109Z,10.16
2023-02-14T12:56:11.150Z,10.16
2023-02-14T12:57:11.093Z,10.18
2023-02-14T12:58:11.056Z,10.20
2023-02-14T12:59:12.788Z,10.20
2023-02-14T13:00:11.151Z,10.22
2023-02-14T13:01:11.078Z,10.22
2023-02-14T13:02:12.196Z,10.24
2023-02-14T13:03:11.035Z,10.25
2023-02-14T13:04:11.042Z,10.26
2023-02-14T13:05:11.080Z,10.26
2023-02-14T13:06:10.980Z,10.28
2023-02-14T13:07:10.964Z,10.32
2023-02-14T13:08:10.942Z,10.32
2023-02-14T13:09:10.918Z,10.34
2023-02-14T13:10:10.991Z,10.32
2023-02-14T13:11:10.916Z,10.32
2023-02-14T13:12:10.882Z,10.31
2023-02-14T13:13:10.904Z,10.31
2023-02-14T13:14:10.889Z,10.29
2023-02-14T13:15:10.833Z,10.29
2023-02-14T13:16:10.995Z,10.31
2023-02-14T13:17:10.800Z,10.29